Time;durP1;ratioP1;P1;durP2;ratioP2;P2;SDS_P1;SDS_P2;PMS_P1;PMS_P2;Temp;Humidity;BMP_temperature;BMP_pressure;BME280_temperature;BME280_humidity;BME280_pressure;Samples;Min_cycle;Max_cycle;Signal;HPM_P1;HPM_P2
2020/12/08 00:01:56;;;;;;;21.98;12.60;;;5.00;99.90;;;;;;5026676;28;20123;-85
2020/12/08 00:04:25;;;;;;;17.92;10.95;;;5.10;99.90;;;;;;5032017;28;20706;-85
2020/12/08 00:06:54;;;;;;;15.90;11.13;;;5.10;99.90;;;;;;5032709;28;20059;-85
2020/12/08 00:09:22;;;;;;;;;;;5.10;99.90;;;;;;5034477;28;20052;-85
2020/12/08 00:11:52;;;;;;;15.02;10.57;;;5.10;99.90;;;;;;5032793;28;20356;-85
2020/12/08 00:14:20;;;;;;;17.00;12.23;;;5.10;99.90;;;;;;5033752;28;20057;-85
2020/12/08 00:16:49;;;;;;;17.08;12.35;;;5.10;99.90;;;;;;5033137;28;20102;-84
2020/12/08 00:19:18;;;;;;;17.40;12.70;;;5.10;99.90;;;;;;5031569;28;20072;-85
2020/12/08 00:21:47;;;;;;;22.88;13.30;;;5.10;99.90;;;;;;5035330;28;20439;-85
2020/12/08 00:24:16;;;;;;;19.85;13.18;;;5.10;99.90;;;;;;5018309;28;20105;-85
2020/12/08 00:26:43;;;;;;;19.52;14.75;;;5.10;99.90;;;;;;5033362;28;20061;-84
2020/12/08 00:29:13;;;;;;;23.90;13.05;;;5.10;99.90;;;;;;5032792;28;20080;-85
2020/12/08 00:31:41;;;;;;;;;;;5.10;99.90;;;;;;5032800;28;20078;-85
2020/12/08 00:34:09;;;;;;;20.70;13.88;;;5.10;99.90;;;;;;5032578;28;20274;-85
2020/12/08 00:36:40;;;;;;;21.25;13.55;;;5.20;99.90;;;;;;5032725;28;20482;-84
2020/12/08 00:39:08;;;;;;;20.00;13.18;;;5.20;99.90;;;;;;5050959;28;20447;-85
2020/12/08 00:41:38;;;;;;;22.95;13.38;;;5.20;99.90;;;;;;5034058;28;20103;-85
2020/12/08 00:44:06;;;;;;;;;;;5.20;99.90;;;;;;5035334;28;20059;-85
2020/12/08 00:46:34;;;;;;;19.75;12.07;;;5.20;99.90;;;;;;5032644;28;19925;-84
2020/12/08 00:49:02;;;;;;;17.23;11.85;;;5.20;99.90;;;;;;5038694;28;20671;-85
2020/12/08 00:51:31;;;;;;;16.17;12.68;;;5.10;99.90;;;;;;5043139;28;20053;-85
2020/12/08 00:54:01;;;;;;;23.10;13.45;;;5.10;99.90;;;;;;5024800;28;20534;-85
2020/12/08 00:56:31;;;;;;;19.40;13.27;;;5.10;99.90;;;;;;5035465;28;20124;-84
2020/12/08 00:58:59;;;;;;;20.13;12.45;;;5.10;99.90;;;;;;5048320;28;20111;-85
2020/12/08 01:01:26;;;;;;;21.70;12.48;;;5.00;99.90;;;;;;5037038;28;20049;-85
2020/12/08 01:03:56;;;;;;;15.85;12.85;;;5.00;99.90;;;;;;5037904;28;20128;-84
2020/12/08 01:06:24;;;;;;;18.40;12.82;;;5.00;99.90;;;;;;5021789;28;20058;-85
2020/12/08 01:08:53;;;;;;;16.50;11.43;;;4.90;99.90;;;;;;5038864;28;20049;-85
2020/12/08 01:11:21;;;;;;;;;;;4.90;99.90;;;;;;5036723;28;20362;-85
2020/12/08 01:13:50;;;;;;;18.02;11.15;;;4.80;99.90;;;;;;5041019;28;20285;-85
2020/12/08 01:16:24;;;;;;;18.60;11.57;;;4.80;99.90;;;;;;5047145;28;20045;-85
2020/12/08 01:18:53;;;;;;;20.75;11.13;;;4.70;99.90;;;;;;5022196;28;20049;-84
2020/12/08 01:21:22;;;;;;;15.15;10.23;;;4.70;99.90;;;;;;5037701;28;20052;-85
2020/12/08 01:23:51;;;;;;;18.35;11.52;;;4.70;99.90;;;;;;5038509;28;20430;-85
2020/12/08 01:26:27;;;;;;;16.60;10.32;;;4.70;99.90;;;;;;5038949;28;20053;-85
2020/12/08 01:28:55;;;;;;;15.25;10.68;;;4.60;99.90;;;;;;5030941;28;20053;-85
2020/12/08 01:31:34;;;;;;;15.40;8.93;;;4.60;99.90;;;;;;5025931;28;20044;-85
2020/12/08 01:34:02;;;;;;;12.75;8.82;;;4.60;99.90;;;;;;5037289;28;20509;-84
2020/12/08 01:36:32;;;;;;;15.05;8.80;;;4.60;99.90;;;;;;5021480;28;20071;-85
2020/12/08 01:39:00;;;;;;;10.77;7.70;;;4.60;99.90;;;;;;5064307;28;20068;-85
2020/12/08 01:41:28;;;;;;;;;;;4.60;99.90;;;;;;5058037;28;20049;-85
2020/12/08 01:43:57;;;;;;;12.07;7.53;;;4.60;99.90;;;;;;5059078;28;19921;-84
2020/12/08 01:46:26;;;;;;;7.38;6.15;;;4.60;99.90;;;;;;5057768;28;20143;-85
2020/12/08 01:48:56;;;;;;;10.05;6.75;;;4.60;99.90;;;;;;5072650;28;20045;-85
2020/12/08 01:51:26;;;;;;;8.45;6.15;;;4.60;99.90;;;;;;5064822;28;20048;-85
2020/12/08 01:53:56;;;;;;;9.60;6.10;;;4.60;99.90;;;;;;5055499;28;20072;-85
2020/12/08 01:56:24;;;;;;;13.13;6.80;;;4.70;99.90;;;;;;5056512;28;20056;-85
2020/12/08 01:58:53;;;;;;;9.90;6.57;;;4.70;99.90;;;;;;5061220;28;20056;-84
2020/12/08 02:01:22;;;;;;;9.10;6.10;;;4.70;99.90;;;;;;5071169;28;20049;-85
2020/12/08 02:03:50;;;;;;;9.68;6.68;;;4.70;99.90;;;;;;5069813;28;20133;-83
2020/12/08 02:06:21;;;;;;;8.30;6.23;;;4.70;99.90;;;;;;5054835;28;20070;-83
2020/12/08 02:08:49;;;;;;;8.85;6.55;;;4.60;99.90;;;;;;5057567;28;20334;-83
2020/12/08 02:11:18;;;;;;;8.90;6.15;;;4.70;99.90;;;;;;5056447;28;20052;-83
2020/12/08 02:13:46;;;;;;;7.18;6.13;;;4.70;99.90;;;;;;5059618;28;20075;-83
2020/12/08 02:16:18;;;;;;;8.60;5.20;;;4.70;99.90;;;;;;5065760;28;20048;-83
2020/12/08 02:18:46;;;;;;;8.50;5.68;;;4.70;99.90;;;;;;5056580;28;20423;-83
2020/12/08 02:21:16;;;;;;;9.10;5.80;;;4.70;99.90;;;;;;5054566;28;20056;-83
2020/12/08 02:23:51;;;;;;;9.02;5.72;;;4.70;99.90;;;;;;5072218;28;20061;-84
2020/12/08 02:26:20;;;;;;;9.13;5.55;;;4.70;99.90;;;;;;5064910;28;20052;-83
2020/12/08 02:28:51;;;;;;;10.75;5.50;;;4.80;99.90;;;;;;5065915;28;20051;-83
2020/12/08 02:31:19;;;;;;;9.63;5.40;;;4.80;99.90;;;;;;5068135;28;20057;-83
2020/12/08 02:33:48;;;;;;;11.10;5.22;;;4.80;99.90;;;;;;5056454;28;20359;-83
2020/12/08 02:36:18;;;;;;;8.68;5.18;;;4.90;99.90;;;;;;5069342;28;20044;-83
2020/12/08 02:38:47;;;;;;;8.18;4.95;;;4.90;99.90;;;;;;5066954;28;20091;-83
2020/12/08 02:41:15;;;;;;;8.13;4.82;;;5.00;99.90;;;;;;5065467;28;20056;-83
2020/12/08 02:43:44;;;;;;;7.85;4.95;;;5.00;99.90;;;;;;5062151;28;20053;-83
2020/12/08 02:46:13;;;;;;;7.53;5.20;;;5.00;99.90;;;;;;5055719;28;20045;-83
2020/12/08 02:48:41;;;;;;;8.93;5.00;;;5.00;99.90;;;;;;5070734;28;20408;-83
2020/12/08 02:51:15;;;;;;;10.63;5.07;;;5.10;99.90;;;;;;5064039;28;20052;-83
2020/12/08 02:53:43;;;;;;;8.32;5.20;;;5.10;99.90;;;;;;5054942;28;20394;-84
2020/12/08 02:56:14;;;;;;;8.45;5.20;;;5.10;99.90;;;;;;5055795;28;20102;-83
2020/12/08 02:58:42;;;;;;;8.57;5.57;;;5.10;99.90;;;;;;5058460;28;20056;-83
2020/12/08 03:01:11;;;;;;;8.90;5.20;;;5.10;99.90;;;;;;5069173;28;20344;-83
2020/12/08 03:03:41;;;;;;;9.88;5.40;;;5.10;99.90;;;;;;5070947;28;20102;-83
2020/12/08 03:06:09;;;;;;;8.52;5.30;;;5.10;99.90;;;;;;5055273;28;20427;-83
2020/12/08 03:08:38;;;;;;;9.18;5.20;;;5.10;99.90;;;;;;5053420;28;20052;-84
2020/12/08 03:11:06;;;;;;;7.63;6.22;;;5.00;99.90;;;;;;5056563;28;20053;-84
2020/12/08 03:13:34;;;;;;;8.65;5.80;;;5.00;99.90;;;;;;5057030;28;20059;-82
2020/12/08 03:16:03;;;;;;;9.15;5.55;;;5.00;99.90;;;;;;5067309;28;20063;-83
2020/12/08 03:18:31;;;;;;;7.88;5.75;;;5.00;99.90;;;;;;5070377;28;20438;-83
2020/12/08 03:20:59;;;;;;;7.55;5.22;;;5.00;99.90;;;;;;5053896;28;20075;-83
2020/12/08 03:23:26;;;;;;;10.02;5.45;;;4.90;99.90;;;;;;5059710;28;20053;-83
2020/12/08 03:25:54;;;;;;;11.32;5.50;;;4.90;99.90;;;;;;5061951;28;20048;-83
2020/12/08 03:28:22;;;;;;;8.27;5.15;;;4.80;99.90;;;;;;5064668;28;20056;-83
2020/12/08 03:30:52;;;;;;;13.63;5.80;;;4.80;99.90;;;;;;5070695;28;20101;-83
2020/12/08 03:33:22;;;;;;;7.68;5.88;;;4.80;99.90;;;;;;5053395;28;20141;-83
2020/12/08 03:35:53;;;;;;;9.32;5.70;;;4.70;99.90;;;;;;5065924;28;20498;-83
2020/12/08 03:38:22;;;;;;;9.55;6.03;;;4.70;99.90;;;;;;5067767;28;20581;-83
2020/12/08 03:40:50;;;;;;;7.97;5.50;;;4.70;99.90;;;;;;5066103;28;20040;-83
2020/12/08 03:43:20;;;;;;;11.13;6.00;;;4.60;99.90;;;;;;5065762;28;20060;-83
2020/12/08 03:45:50;;;;;;;8.57;5.47;;;4.60;99.90;;;;;;5055876;28;20045;-84
2020/12/08 03:48:19;;;;;;;8.13;6.03;;;4.60;99.90;;;;;;5069530;28;20056;-83
2020/12/08 03:50:48;;;;;;;7.90;6.00;;;4.60;99.90;;;;;;5063499;28;20071;-83
2020/12/08 03:53:18;;;;;;;11.57;6.43;;;4.60;99.90;;;;;;5066927;28;20072;-83
2020/12/08 03:55:48;;;;;;;8.90;6.10;;;4.50;99.90;;;;;;5061357;28;20436;-83
2020/12/08 03:58:18;;;;;;;13.60;6.00;;;4.50;99.90;;;;;;5056772;28;20203;-85
2020/12/08 04:00:48;;;;;;;16.17;6.25;;;4.50;99.90;;;;;;5069438;28;20530;-83
2020/12/08 04:03:16;;;;;;;10.32;6.10;;;4.50;99.90;;;;;;5069201;28;20056;-82
2020/12/08 04:05:46;;;;;;;9.48;5.50;;;4.40;99.90;;;;;;5043119;28;20059;-83
2020/12/08 04:08:15;;;;;;;8.23;5.32;;;4.40;99.90;;;;;;5057057;28;20084;-83
2020/12/08 04:10:44;;;;;;;7.82;5.57;;;4.40;99.90;;;;;;5057158;28;20466;-83
2020/12/08 04:13:14;;;;;;;8.70;5.30;;;4.30;99.90;;;;;;5066354;28;20060;-83
2020/12/08 04:15:44;;;;;;;10.73;5.47;;;4.40;99.90;;;;;;5054336;28;20052;-83
2020/12/08 04:18:13;;;;;;;10.63;5.25;;;4.30;99.90;;;;;;5056591;28;20064;-83
2020/12/08 04:20:45;;;;;;;10.90;5.28;;;4.30;99.90;;;;;;5056966;28;20061;-83
2020/12/08 04:23:15;;;;;;;8.07;5.50;;;4.30;99.90;;;;;;5065012;28;20053;-84
2020/12/08 04:25:44;;;;;;;7.90;5.05;;;4.30;99.90;;;;;;5074996;28;20041;-83
2020/12/08 04:28:14;;;;;;;8.88;5.63;;;4.30;99.90;;;;;;5071261;28;20059;-83
2020/12/08 04:30:44;;;;;;;14.57;5.78;;;4.30;99.90;;;;;;5057507;28;20124;-84
2020/12/08 04:33:14;;;;;;;8.82;5.50;;;4.30;99.90;;;;;;5056926;28;20133;-83
2020/12/08 04:35:43;;;;;;;7.88;4.60;;;4.30;99.90;;;;;;5069443;28;20064;-83
2020/12/08 04:38:14;;;;;;;8.32;5.70;;;4.30;99.90;;;;;;5074971;28;20048;-83
2020/12/08 04:40:48;;;;;;;8.50;4.72;;;4.20;99.90;;;;;;5066648;28;20053;-83
2020/12/08 04:43:17;;;;;;;8.50;5.38;;;4.20;99.90;;;;;;5058931;28;20053;-83
2020/12/08 04:45:46;;;;;;;8.10;5.43;;;4.20;99.90;;;;;;5074397;28;20060;-83
2020/12/08 04:48:14;;;;;;;7.80;5.43;;;4.20;99.90;;;;;;5070779;28;20052;-83
2020/12/08 04:50:42;;;;;;;9.75;4.82;;;4.20;99.90;;;;;;5069701;28;20064;-83
2020/12/08 04:53:10;;;;;;;8.82;5.18;;;4.10;99.90;;;;;;5070702;28;20494;-83
2020/12/08 04:55:38;;;;;;;6.90;4.95;;;4.10;99.90;;;;;;5066595;28;20228;-83
2020/12/08 04:58:09;;;;;;;6.63;4.25;;;4.10;99.90;;;;;;5058903;28;20044;-83
2020/12/08 05:00:42;;;;;;;6.60;4.65;;;4.10;99.90;;;;;;5070987;28;20053;-83
2020/12/08 05:03:10;;;;;;;8.05;4.85;;;4.10;99.90;;;;;;5076778;28;20131;-83
2020/12/08 05:05:42;;;;;;;6.27;4.03;;;4.10;99.90;;;;;;5058000;28;20118;-84
2020/12/08 05:08:15;;;;;;;7.63;4.80;;;4.10;99.90;;;;;;5057228;28;20840;-83
2020/12/08 05:10:43;;;;;;;7.63;4.88;;;4.10;99.90;;;;;;5060739;28;20120;-83
2020/12/08 05:13:17;;;;;;;8.93;4.45;;;4.10;99.90;;;;;;5069581;28;20052;-83
2020/12/08 05:15:58;;;;;;;8.75;4.95;;;4.00;99.90;;;;;;5042941;28;20052;-83
2020/12/08 05:18:28;;;;;;;6.38;3.97;;;4.00;99.90;;;;;;5056434;28;20123;-84
2020/12/08 05:21:12;;;;;;;6.70;4.30;;;4.00;99.90;;;;;;5072450;28;20394;-86
2020/12/08 05:23:45;;;;;;;7.35;3.75;;;4.00;99.90;;;;;;5067215;28;20057;-83
2020/12/08 05:26:15;;;;;;;7.53;4.30;;;4.00;99.90;;;;;;5072756;28;20456;-84
2020/12/08 05:28:46;;;;;;;6.38;3.80;;;4.00;99.90;;;;;;5063359;28;20063;-83
2020/12/08 05:31:28;;;;;;;6.05;4.00;;;4.00;99.90;;;;;;5056855;28;20068;-83
2020/12/08 05:33:59;;;;;;;6.53;3.55;;;4.00;99.90;;;;;;5058782;28;20045;-84
2020/12/08 05:36:28;;;;;;;6.88;3.80;;;4.00;99.90;;;;;;5073118;28;20497;-83
2020/12/08 05:38:59;;;;;;;;;;;4.00;99.90;;;;;;5069662;28;20086;-83
2020/12/08 05:41:31;;;;;;;10.82;3.92;;;3.90;99.90;;;;;;5088555;28;19920;-83
2020/12/08 05:44:05;;;;;;;8.73;3.92;;;3.90;99.90;;;;;;5068349;28;20049;-82
2020/12/08 05:46:44;;;;;;;7.90;4.53;;;3.80;99.90;;;;;;5066695;28;20049;-83
2020/12/08 05:49:14;;;;;;;9.10;3.80;;;3.80;99.90;;;;;;5069770;28;20055;-80
2020/12/08 05:51:50;;;;;;;6.05;3.75;;;3.80;99.90;;;;;;5066351;28;20063;-84
2020/12/08 05:54:20;;;;;;;9.18;3.85;;;3.70;99.90;;;;;;5074032;28;20052;-84
2020/12/08 05:56:52;;;;;;;5.70;3.45;;;3.70;99.90;;;;;;5056116;28;20103;-83
2020/12/08 05:59:28;;;;;;;7.20;3.63;;;3.70;99.90;;;;;;5065615;28;20059;-84
2020/12/08 06:01:57;;;;;;;8.07;4.53;;;3.60;99.90;;;;;;5069368;28;20135;-86
2020/12/08 06:04:24;;;;;;;8.90;4.18;;;3.60;99.90;;;;;;5071218;28;20059;-84
2020/12/08 06:06:56;;;;;;;9.77;3.72;;;3.60;99.90;;;;;;5057047;28;20044;-84
2020/12/08 06:09:33;;;;;;;8.35;4.32;;;3.50;99.90;;;;;;5056297;28;20123;-84
2020/12/08 06:12:02;;;;;;;9.43;3.90;;;3.60;99.90;;;;;;5066201;28;20053;-83
2020/12/08 06:14:38;;;;;;;7.90;3.90;;;3.60;99.90;;;;;;5057653;28;20052;-83
2020/12/08 06:17:07;;;;;;;9.73;3.65;;;3.60;99.90;;;;;;5055190;28;20064;-83
2020/12/08 06:19:36;;;;;;;5.78;3.25;;;3.60;99.90;;;;;;5055413;28;20068;-83
2020/12/08 06:22:15;;;;;;;9.77;4.22;;;3.60;99.90;;;;;;5056536;28;20044;-83
2020/12/08 06:24:54;;;;;;;6.63;3.60;;;3.60;99.90;;;;;;5071804;28;20045;-85
2020/12/08 06:27:24;;;;;;;7.57;3.90;;;3.50;99.90;;;;;;5070081;28;20059;-86
2020/12/08 06:29:54;;;;;;;11.52;4.07;;;3.50;99.90;;;;;;5057252;28;20083;-84
2020/12/08 06:32:25;;;;;;;7.35;3.70;;;3.50;99.90;;;;;;5058353;28;20060;-84
2020/12/08 06:35:11;;;;;;;8.07;3.80;;;3.50;99.90;;;;;;5056287;28;20542;-83
2020/12/08 06:37:51;;;;;;;9.73;4.28;;;3.50;99.90;;;;;;5064387;28;20114;-83
2020/12/08 06:40:22;;;;;;;7.60;4.18;;;3.40;99.90;;;;;;5068324;28;20493;-84
2020/12/08 06:42:53;;;;;;;7.82;4.20;;;3.40;99.90;;;;;;5055961;28;20083;-84
2020/12/08 06:45:23;;;;;;;6.35;4.25;;;3.40;99.90;;;;;;5055172;28;20049;-85
2020/12/08 06:47:53;;;;;;;9.70;4.35;;;3.40;99.90;;;;;;5057823;28;20059;-84
2020/12/08 06:50:28;;;;;;;8.07;3.97;;;3.50;99.90;;;;;;5056412;28;20079;-84
2020/12/08 06:53:02;;;;;;;7.40;4.18;;;3.50;99.90;;;;;;5063419;28;20056;-84
2020/12/08 06:55:49;;;;;;;7.35;4.10;;;3.50;99.90;;;;;;5065910;28;20075;-84
2020/12/08 06:58:18;;;;;;;5.93;3.72;;;3.50;99.90;;;;;;5056189;28;20047;-84
2020/12/08 07:00:46;;;;;;;;;;;3.60;99.90;;;;;;5070936;28;20048;-83
2020/12/08 07:03:16;;;;;;;6.10;4.07;;;3.60;99.90;;;;;;5069081;28;19921;-84
2020/12/08 07:05:46;;;;;;;7.30;3.78;;;3.60;99.90;;;;;;5071208;28;20059;-84
2020/12/08 07:08:18;;;;;;;6.53;3.97;;;3.70;99.90;;;;;;5060954;28;20064;-83
2020/12/08 07:10:46;;;;;;;11.80;4.03;;;3.70;99.90;;;;;;5057464;28;20475;-84
2020/12/08 07:13:16;;;;;;;6.05;3.28;;;3.80;99.90;;;;;;5070426;28;20048;-84
2020/12/08 07:15:44;;;;;;;7.05;3.38;;;3.80;99.90;;;;;;5071060;28;20106;-84
2020/12/08 07:18:14;;;;;;;6.97;3.72;;;3.80;99.90;;;;;;5073851;28;20057;-83
2020/12/08 07:20:44;;;;;;;5.20;3.30;;;3.90;99.90;;;;;;5056532;28;20076;-84
2020/12/08 07:23:14;;;;;;;7.18;3.92;;;3.90;99.90;;;;;;5055067;28;20128;-84
2020/12/08 07:25:44;;;;;;;4.93;3.28;;;3.90;99.90;;;;;;5057538;28;20059;-84
2020/12/08 07:28:12;;;;;;;;;;;3.90;99.90;;;;;;5069871;28;20467;-84
2020/12/08 07:30:50;;;;;;;8.70;3.30;;;3.90;99.90;;;;;;5069916;28;19943;-84
2020/12/08 07:33:19;;;;;;;6.60;3.33;;;3.90;99.90;;;;;;5053906;28;20053;-83
2020/12/08 07:35:48;;;;;;;5.88;3.65;;;3.90;99.90;;;;;;5065834;28;20083;-84
2020/12/08 07:38:16;;;;;;;6.82;4.00;;;3.90;99.90;;;;;;5069051;28;20052;-85
2020/12/08 07:40:45;;;;;;;9.48;3.55;;;4.00;99.90;;;;;;5066388;28;20410;-84
2020/12/08 07:43:13;;;;;;;7.55;3.70;;;4.00;99.90;;;;;;5069376;28;20061;-84
2020/12/08 07:45:45;;;;;;;6.68;2.78;;;4.10;99.90;;;;;;5054405;28;20041;-84
2020/12/08 07:48:20;;;;;;;7.10;3.50;;;4.10;99.90;;;;;;5067899;28;20056;-84
2020/12/08 07:50:48;;;;;;;5.55;3.38;;;4.20;99.90;;;;;;5048886;28;20148;-84
2020/12/08 07:53:16;;;;;;;7.70;3.22;;;4.20;99.90;;;;;;5064863;28;20106;-84
2020/12/08 07:55:46;;;;;;;7.68;3.10;;;4.30;99.90;;;;;;5060471;28;20049;-84
2020/12/08 07:58:17;;;;;;;6.78;2.92;;;4.30;99.90;;;;;;5054946;28;20128;-84
2020/12/08 08:00:46;;;;;;;7.78;3.22;;;4.30;99.90;;;;;;5067765;28;20421;-84
2020/12/08 08:03:16;;;;;;;9.15;6.47;;;4.40;99.90;;;;;;5088894;28;20056;-84
2020/12/08 08:05:58;;;;;;;7.50;6.00;;;4.40;99.90;;;;;;5044167;28;20134;-83
2020/12/08 08:08:27;;;;;;;7.95;4.05;;;4.50;99.90;;;;;;5055909;28;20490;-83
2020/12/08 08:10:57;;;;;;;7.43;3.13;;;4.50;99.90;;;;;;5058499;28;20079;-83
2020/12/08 08:13:25;;;;;;;5.28;2.90;;;4.60;99.90;;;;;;5070071;28;20052;-83
2020/12/08 08:15:53;;;;;;;5.17;2.37;;;4.70;99.90;;;;;;5056136;28;20060;-83
2020/12/08 08:18:22;;;;;;;3.85;2.15;;;4.70;99.90;;;;;;5069218;28;20394;-84
2020/12/08 08:20:51;;;;;;;4.28;2.10;;;4.80;99.90;;;;;;5070216;28;20521;-83
2020/12/08 08:23:18;;;;;;;5.68;2.13;;;4.80;99.90;;;;;;5061064;28;20111;-84
2020/12/08 08:25:47;;;;;;;4.33;1.83;;;4.90;99.90;;;;;;5068388;28;20132;-83
2020/12/08 08:28:16;;;;;;;5.65;1.50;;;4.90;99.90;;;;;;5067163;28;20053;-83
2020/12/08 08:30:45;;;;;;;3.17;1.70;;;4.90;99.90;;;;;;5053161;28;20466;-83
2020/12/08 08:33:15;;;;;;;5.07;2.03;;;4.90;99.90;;;;;;5052606;28;20056;-83
2020/12/08 08:35:45;;;;;;;7.22;1.50;;;4.90;99.90;;;;;;5066225;28;20151;-83
2020/12/08 08:38:15;;;;;;;3.83;1.52;;;5.00;99.90;;;;;;5068122;28;20061;-83
2020/12/08 08:40:44;;;;;;;4.35;1.40;;;5.00;99.90;;;;;;5069966;28;20095;-83
2020/12/08 08:43:13;;;;;;;4.35;1.35;;;5.00;99.90;;;;;;5066606;28;20080;-83
2020/12/08 08:45:40;;;;;;;4.25;1.10;;;5.00;99.90;;;;;;5053589;28;20072;-83
2020/12/08 08:48:08;;;;;;;4.18;1.65;;;5.00;99.90;;;;;;5053309;28;20060;-83
2020/12/08 08:50:39;;;;;;;4.30;1.20;;;5.00;99.90;;;;;;5058702;28;20079;-83
2020/12/08 08:53:08;;;;;;;7.50;1.48;;;5.00;99.90;;;;;;5062772;28;20109;-83
2020/12/08 08:55:36;;;;;;;4.47;1.17;;;5.10;99.90;;;;;;5065275;28;20039;-83
2020/12/08 08:58:13;;;;;;;4.43;1.30;;;5.10;99.90;;;;;;5054256;28;20475;-83
2020/12/08 09:00:42;;;;;;;1.40;1.02;;;5.20;99.90;;;;;;5067361;28;20471;-82
2020/12/08 09:03:10;;;;;;;2.75;1.10;;;5.20;99.90;;;;;;5062631;28;20158;-83
2020/12/08 09:05:43;;;;;;;2.35;1.00;;;5.30;99.90;;;;;;5067171;28;20056;-83
2020/12/08 09:08:12;;;;;;;;;;;5.40;99.90;;;;;;5063563;28;20114;-83
2020/12/08 09:10:40;;;;;;;4.25;1.40;;;5.40;99.90;;;;;;5058063;28;19921;-85
2020/12/08 09:13:08;;;;;;;4.40;1.53;;;5.50;99.90;;;;;;5059720;28;20444;-83
2020/12/08 09:15:38;;;;;;;6.25;1.42;;;5.50;99.90;;;;;;5069872;28;20068;-83
2020/12/08 09:18:05;;;;;;;;;;;5.60;99.90;;;;;;5071823;28;20044;-83
2020/12/08 09:20:34;;;;;;;4.72;1.27;;;5.60;99.90;;;;;;5058058;28;19990;-83
2020/12/08 09:23:03;;;;;;;3.85;1.10;;;5.70;99.90;;;;;;5062754;28;20087;-83
2020/12/08 09:25:31;;;;;;;4.85;1.30;;;5.70;99.90;;;;;;5072478;28;20055;-84
2020/12/08 09:28:00;;;;;;;5.03;1.80;;;5.90;99.90;;;;;;5059190;28;20051;-84
2020/12/08 09:30:28;;;;;;;5.63;1.30;;;6.00;99.90;;;;;;5071697;28;20059;-84
2020/12/08 09:32:58;;;;;;;3.78;1.23;;;6.10;99.90;;;;;;5059893;28;20048;-84
2020/12/08 09:35:27;;;;;;;4.78;1.58;;;6.20;99.90;;;;;;5064338;28;20048;-84
2020/12/08 09:37:55;;;;;;;4.20;0.90;;;6.20;99.90;;;;;;5067631;28;20140;-84
2020/12/08 09:40:23;;;;;;;2.70;0.97;;;6.30;99.90;;;;;;5059544;28;20059;-84
2020/12/08 09:42:52;;;;;;;;;;;6.30;99.90;;;;;;5072423;28;20302;-84
2020/12/08 09:45:21;;;;;;;2.22;0.60;;;6.30;99.90;;;;;;5070396;28;19921;-84
2020/12/08 09:47:49;;;;;;;3.08;0.60;;;6.30;99.90;;;;;;5057503;28;20065;-84
2020/12/08 09:50:17;;;;;;;2.85;0.60;;;6.30;99.90;;;;;;5067649;28;20049;-84
2020/12/08 09:52:46;;;;;;;0.90;0.60;;;6.30;99.90;;;;;;5063011;28;20424;-84
2020/12/08 09:55:15;;;;;;;1.85;0.80;;;6.40;99.90;;;;;;5068543;28;20092;-84
2020/12/08 09:57:44;;;;;;;4.10;0.70;;;6.50;99.90;;;;;;5072308;28;20130;-84
2020/12/08 10:00:14;;;;;;;2.90;0.77;;;6.50;99.90;;;;;;5056008;28;20496;-84
2020/12/08 10:02:43;;;;;;;3.20;0.50;;;6.50;99.90;;;;;;5071584;28;20367;-84
2020/12/08 10:05:11;;;;;;;1.73;0.55;;;6.50;99.90;;;;;;5068217;28;20049;-84
2020/12/08 10:07:42;;;;;;;2.88;0.73;;;6.40;99.90;;;;;;5066687;28;20060;-84
2020/12/08 10:10:11;;;;;;;4.55;0.60;;;6.40;99.90;;;;;;5057338;28;20052;-84
2020/12/08 10:12:40;;;;;;;;;;;6.30;99.90;;;;;;5072194;28;20083;-84
2020/12/08 10:15:08;;;;;;;3.35;0.52;;;6.20;99.90;;;;;;5088759;28;19927;-84
2020/12/08 10:17:36;;;;;;;2.78;0.60;;;6.10;99.90;;;;;;5071730;28;20053;-84
2020/12/08 10:20:06;;;;;;;3.15;0.50;;;6.10;99.90;;;;;;5062386;28;20486;-84
2020/12/08 10:22:34;;;;;;;0.70;0.55;;;6.10;99.90;;;;;;5055154;28;20052;-84
2020/12/08 10:25:03;;;;;;;;;;;6.10;99.90;;;;;;5058022;28;20063;-83
2020/12/08 10:27:32;;;;;;;4.32;0.70;;;6.10;99.90;;;;;;5069383;28;19921;-84
2020/12/08 10:30:05;;;;;;;0.63;0.45;;;6.10;99.90;;;;;;5067119;28;20057;-84
2020/12/08 10:32:33;;;;;;;3.10;0.52;;;6.10;99.90;;;;;;5054898;28;20045;-84
2020/12/08 10:35:01;;;;;;;1.43;0.57;;;6.10;99.90;;;;;;5061052;28;20049;-84
2020/12/08 10:37:30;;;;;;;3.10;0.50;;;6.10;99.90;;;;;;5071248;28;20298;-84
2020/12/08 10:39:58;;;;;;;2.22;0.40;;;6.10;99.90;;;;;;5056570;28;20045;-84
2020/12/08 10:42:27;;;;;;;8.45;1.45;;;6.10;99.90;;;;;;5053394;28;20055;-84
2020/12/08 10:44:55;;;;;;;1.83;0.68;;;6.10;99.90;;;;;;5054627;28;20049;-84
2020/12/08 10:47:23;;;;;;;1.80;0.73;;;6.20;99.90;;;;;;5063132;28;20053;-84
2020/12/08 10:49:54;;;;;;;3.08;1.13;;;6.20;99.90;;;;;;5066702;28;20052;-84
2020/12/08 10:52:22;;;;;;;2.05;1.13;;;6.20;99.90;;;;;;5057698;28;20041;-84
2020/12/08 10:54:50;;;;;;;2.13;0.55;;;6.20;99.90;;;;;;5070144;28;20052;-84
2020/12/08 10:57:19;;;;;;;3.40;0.70;;;6.30;99.90;;;;;;5053676;28;20048;-84
2020/12/08 10:59:46;;;;;;;1.88;0.57;;;6.30;99.90;;;;;;5065595;28;20052;-84
2020/12/08 11:02:15;;;;;;;2.13;0.40;;;6.30;99.90;;;;;;5069030;28;20435;-84
2020/12/08 11:04:44;;;;;;;2.95;0.60;;;6.30;99.90;;;;;;5066191;28;20076;-84
2020/12/08 11:07:13;;;;;;;3.03;0.77;;;6.30;99.90;;;;;;5067920;28;20115;-83
2020/12/08 11:09:43;;;;;;;1.50;0.50;;;6.40;99.90;;;;;;5053631;28;20053;-84
2020/12/08 11:12:14;;;;;;;1.40;0.60;;;6.40;99.90;;;;;;5068081;28;20045;-83
2020/12/08 11:14:43;;;;;;;1.20;0.60;;;6.50;99.90;;;;;;5069445;28;20052;-84
2020/12/08 11:17:11;;;;;;;1.27;0.50;;;6.60;99.90;;;;;;5067240;28;20056;-84
2020/12/08 11:19:39;;;;;;;;;;;6.70;99.90;;;;;;5063503;28;20591;-84
2020/12/08 11:22:07;;;;;;;1.70;0.60;;;6.70;99.90;;;;;;5083785;28;19967;-84
2020/12/08 11:24:41;;;;;;;1.98;1.00;;;6.80;99.90;;;;;;5069630;28;20053;-85
2020/12/08 11:27:18;;;;;;;2.67;0.70;;;6.80;99.90;;;;;;5067909;28;20048;-84
2020/12/08 11:29:47;;;;;;;1.42;0.80;;;6.90;99.90;;;;;;5066944;28;20049;-83
2020/12/08 11:32:18;;;;;;;2.45;0.90;;;7.00;99.90;;;;;;5061415;28;20049;-84
2020/12/08 11:34:46;;;;;;;2.00;0.90;;;7.10;99.90;;;;;;5057665;28;20471;-84
2020/12/08 11:37:14;;;;;;;1.70;0.80;;;7.10;99.90;;;;;;5068494;28;20397;-84
2020/12/08 11:39:42;;;;;;;2.45;1.00;;;7.20;99.90;;;;;;5067548;28;20052;-84
2020/12/08 11:42:13;;;;;;;;;;;7.20;99.90;;;;;;5069529;28;20409;-84
2020/12/08 11:44:42;;;;;;;4.28;0.80;;;7.30;99.90;;;;;;5055052;28;19962;-84
2020/12/08 11:47:11;;;;;;;3.67;1.00;;;7.30;99.90;;;;;;5060647;28;20067;-84
2020/12/08 11:49:40;;;;;;;4.32;1.13;;;7.30;99.90;;;;;;5067611;28;20049;-84
2020/12/08 11:52:12;;;;;;;2.15;0.85;;;7.40;99.90;;;;;;5063019;28;20143;-84
2020/12/08 11:54:40;;;;;;;2.70;1.00;;;7.40;99.90;;;;;;5069129;28;20679;-84
2020/12/08 11:57:09;;;;;;;3.42;1.10;;;7.40;99.90;;;;;;5054168;28;20048;-84
2020/12/08 11:59:37;;;;;;;7.10;1.20;;;7.40;99.90;;;;;;5052913;28;20057;-84
2020/12/08 12:02:07;;;;;;;4.78;1.10;;;7.40;99.90;;;;;;5064840;28;20454;-83
2020/12/08 12:04:35;;;;;;;4.30;0.90;;;7.50;99.90;;;;;;5070203;28;20106;-83
2020/12/08 12:07:05;;;;;;;3.78;0.95;;;7.60;99.90;;;;;;5069064;28;20063;-84
2020/12/08 12:09:34;;;;;;;3.60;0.68;;;7.60;99.90;;;;;;5054658;28;20045;-84
2020/12/08 12:12:02;;;;;;;1.92;0.88;;;7.60;99.90;;;;;;5062617;28;20074;-84
2020/12/08 12:14:32;;;;;;;2.67;1.20;;;7.60;99.90;;;;;;5060217;28;20044;-85
2020/12/08 12:17:00;;;;;;;2.70;1.10;;;7.60;99.90;;;;;;5061307;28;20514;-84
2020/12/08 12:19:32;;;;;;;3.20;1.00;;;7.70;99.90;;;;;;5058436;28;20364;-84
2020/12/08 12:22:00;;;;;;;2.53;0.60;;;7.70;99.90;;;;;;5061966;28;20045;-84
2020/12/08 12:24:28;;;;;;;;;;;7.70;99.90;;;;;;5065779;28;20466;-84
2020/12/08 12:26:56;;;;;;;2.40;1.00;;;7.70;99.90;;;;;;5059720;28;20290;-83
2020/12/08 12:29:24;;;;;;;2.05;0.90;;;7.70;99.90;;;;;;5061144;28;20059;-84
2020/12/08 12:31:53;;;;;;;5.18;1.00;;;7.70;99.90;;;;;;5063613;28;20364;-84
2020/12/08 12:34:21;;;;;;;2.90;1.10;;;7.70;99.90;;;;;;5046725;28;20044;-84
2020/12/08 12:36:52;;;;;;;2.95;0.90;;;7.80;99.90;;;;;;5054057;28;20407;-84
2020/12/08 12:39:20;;;;;;;3.00;0.90;;;7.70;99.90;;;;;;5046252;28;20125;-84
2020/12/08 12:41:49;;;;;;;4.97;1.08;;;7.70;99.90;;;;;;5052626;28;20056;-84
2020/12/08 12:44:17;;;;;;;2.28;1.15;;;7.70;99.90;;;;;;5050811;28;20432;-84
2020/12/08 12:46:52;;;;;;;2.60;0.68;;;7.60;99.90;;;;;;5047801;28;20414;-84
2020/12/08 12:49:22;;;;;;;6.20;1.30;;;7.60;99.90;;;;;;5057648;28;20048;-84
2020/12/08 12:51:49;;;;;;;5.35;1.15;;;7.60;99.90;;;;;;5069958;28;20106;-84
2020/12/08 12:54:18;;;;;;;3.13;1.02;;;7.60;99.90;;;;;;5055745;28;20048;-84
2020/12/08 12:56:45;;;;;;;1.70;0.90;;;7.50;99.90;;;;;;5054477;28;20079;-84
2020/12/08 12:59:15;;;;;;;2.65;0.90;;;7.50;99.90;;;;;;5054582;28;20463;-84
2020/12/08 13:01:44;;;;;;;2.35;0.80;;;7.50;99.90;;;;;;5050784;28;20071;-84
2020/12/08 13:04:13;;;;;;;2.78;0.85;;;7.40;99.90;;;;;;5053642;28;20044;-84
2020/12/08 13:06:46;;;;;;;3.13;0.70;;;7.40;99.90;;;;;;5055412;28;20060;-84
2020/12/08 13:09:15;;;;;;;3.05;0.90;;;7.40;99.90;;;;;;5056660;28;20048;-84
2020/12/08 13:11:44;;;;;;;3.40;0.80;;;7.40;99.90;;;;;;5047510;28;20414;-84